Time;durP1;ratioP1;P1;durP2;ratioP2;P2;SDS_P1;SDS_P2;PMS_P1;PMS_P2;Temp;Humidity;BMP_temperature;BMP_pressure;BME280_temperature;BME280_humidity;BME280_pressure;Samples;Min_cycle;Max_cycle;Signal;HPM_P1;HPM_P2
2023/10/09 00:03:06;;;;;;;1.98;0.85;;;13.70;99.90;;;;;;5111254;28;20075;-71
2023/10/09 00:05:45;;;;;;;0.73;0.40;;;13.70;99.90;;;;;;5110916;27;20047;-71
2023/10/09 00:08:18;;;;;;;2.13;0.93;;;13.70;99.90;;;;;;5111740;27;20375;-71
2023/10/09 00:10:53;;;;;;;4.18;0.88;;;13.70;99.90;;;;;;5115326;27;20470;-72
2023/10/09 00:13:32;;;;;;;1.08;0.63;;;13.70;99.90;;;;;;5112589;27;20123;-71
2023/10/09 00:16:08;;;;;;;0.90;0.60;;;13.70;99.90;;;;;;5093545;27;20035;-71
2023/10/09 00:18:34;;;;;;;0.68;0.40;;;13.80;99.90;;;;;;5117899;27;20498;-71
2023/10/09 00:21:10;;;;;;;4.32;1.85;;;13.70;99.90;;;;;;5114348;27;20039;-72
2023/10/09 00:23:36;;;;;;;2.30;0.98;;;13.80;99.90;;;;;;5113746;27;20042;-73
2023/10/09 00:28:57;;;;;;;2.15;0.70;;;13.70;99.90;;;;;;5101000;27;20082;-73
2023/10/09 00:31:29;;;;;;;2.08;0.93;;;13.70;99.90;;;;;;5107894;27;20066;-72
2023/10/09 00:34:07;;;;;;;3.88;0.70;;;13.70;99.90;;;;;;5115491;27;20395;-72
2023/10/09 00:36:42;;;;;;;3.75;1.23;;;13.70;99.90;;;;;;5108457;27;20495;-72
2023/10/09 00:39:22;;;;;;;2.35;1.10;;;13.80;99.90;;;;;;5114326;27;20043;-72
2023/10/09 00:41:47;;;;;;;2.83;1.10;;;13.70;99.90;;;;;;5111686;27;20049;-72
2023/10/09 00:44:14;;;;;;;4.95;1.30;;;13.70;99.90;;;;;;5113891;27;20039;-73
2023/10/09 00:46:43;;;;;;;3.28;1.27;;;13.70;99.90;;;;;;5105898;27;20056;-72
2023/10/09 00:49:10;;;;;;;2.65;0.90;;;13.70;99.90;;;;;;5096324;27;20071;-72
2023/10/09 00:51:42;;;;;;;4.47;1.35;;;13.70;99.90;;;;;;5110316;27;20058;-72
2023/10/09 00:54:14;;;;;;;3.80;1.65;;;13.70;99.90;;;;;;5113232;27;20478;-72
2023/10/09 00:56:43;;;;;;;2.30;1.02;;;13.70;99.90;;;;;;5094780;27;20046;-72
2023/10/09 00:59:19;;;;;;;5.43;1.23;;;13.70;99.90;;;;;;5114323;27;20027;-70
2023/10/09 01:02:35;;;;;;;4.10;1.10;;;13.70;99.90;;;;;;5108191;27;20078;-72
2023/10/09 01:04:40;;;;;;;3.00;1.17;;;13.70;99.90;;;;;;5100634;27;20458;-72
2023/10/09 01:07:15;;;;;;;3.08;1.15;;;13.60;99.90;;;;;;5108755;27;20418;-72
2023/10/09 01:09:44;;;;;;;4.10;1.48;;;13.60;99.90;;;;;;5096049;27;20042;-70
2023/10/09 01:12:19;;;;;;;2.47;1.48;;;13.60;99.90;;;;;;5113238;27;20495;-71
2023/10/09 01:14:50;;;;;;;4.75;1.50;;;13.60;99.90;;;;;;5108134;27;20035;-71
2023/10/09 01:17:29;;;;;;;3.42;1.17;;;13.60;99.90;;;;;;5110577;27;20522;-71
2023/10/09 01:19:57;;;;;;;4.47;1.83;;;13.60;99.90;;;;;;5110960;27;20054;-71
2023/10/09 01:22:23;;;;;;;3.40;1.40;;;13.60;99.90;;;;;;5109785;27;20047;-71
2023/10/09 01:24:51;;;;;;;5.40;2.42;;;13.60;99.90;;;;;;5113076;27;20098;-71
2023/10/09 01:27:16;;;;;;;3.30;1.70;;;13.50;99.90;;;;;;5094445;27;20047;-71
2023/10/09 01:29:45;;;;;;;2.08;1.10;;;13.50;99.90;;;;;;5090828;27;20040;-71
2023/10/09 01:32:18;;;;;;;4.88;1.63;;;13.50;99.90;;;;;;5109798;27;20039;-71
2023/10/09 01:34:50;;;;;;;4.88;1.67;;;13.50;99.90;;;;;;5112651;27;20075;-71
2023/10/09 01:37:28;;;;;;;5.95;2.17;;;13.50;99.90;;;;;;5111219;27;20035;-70
2023/10/09 01:39:59;;;;;;;6.13;1.60;;;13.50;99.90;;;;;;5113190;27;20085;-71
2023/10/09 01:43:09;;;;;;;2.13;1.25;;;13.50;99.90;;;;;;5111473;27;20138;-71
2023/10/09 01:47:51;;;;;;;5.97;2.00;;;13.50;99.90;;;;;;5106811;28;20063;-71
2023/10/09 01:50:22;;;;;;;4.97;1.90;;;13.50;99.90;;;;;;5108957;28;20333;-70
2023/10/09 01:52:48;;;;;;;3.42;1.65;;;13.50;99.90;;;;;;5084493;28;20038;-70
2023/10/09 01:55:27;;;;;;;7.15;2.33;;;13.50;99.90;;;;;;5092712;28;20527;-70
2023/10/09 01:57:53;;;;;;;5.25;2.35;;;13.50;99.90;;;;;;5111603;27;20046;-70
2023/10/09 02:00:23;;;;;;;5.40;2.67;;;13.50;99.90;;;;;;5106127;28;20044;-70
2023/10/09 02:02:50;;;;;;;6.03;2.58;;;13.50;99.90;;;;;;5101703;28;20497;-71
2023/10/09 02:07:51;;;;;;;5.45;2.20;;;13.50;99.90;;;;;;5107763;28;20124;-72
2023/10/09 02:13:06;;;;;;;6.68;2.67;;;13.50;99.90;;;;;;5093598;28;20070;-73
2023/10/09 02:23:26;;;;;;;3.95;2.40;;;13.50;99.90;;;;;;5102954;28;20043;-71
2023/10/09 02:25:57;;;;;;;8.27;3.15;;;13.50;99.90;;;;;;5109212;28;20376;-71
2023/10/09 02:28:23;;;;;;;6.45;2.60;;;13.60;99.90;;;;;;5106753;28;20660;-70
2023/10/09 02:30:49;;;;;;;6.70;2.78;;;13.50;99.90;;;;;;5087975;28;20036;-72
2023/10/09 02:33:20;;;;;;;6.32;3.10;;;13.50;99.90;;;;;;5106234;28;20110;-72
2023/10/09 02:35:51;;;;;;;8.40;3.45;;;13.50;99.90;;;;;;5087854;28;20075;-71
2023/10/09 02:38:17;;;;;;;7.13;2.35;;;13.50;99.90;;;;;;5105271;28;20035;-72
2023/10/09 02:43:34;;;;;;;5.43;3.03;;;13.60;99.90;;;;;;5103338;28;21082;-72
2023/10/09 02:46:14;;;;;;;6.15;2.53;;;13.60;99.90;;;;;;5106224;28;20533;-72
2023/10/09 02:48:47;;;;;;;5.45;2.65;;;13.60;99.90;;;;;;5091965;28;20051;-72
2023/10/09 02:51:31;;;;;;;4.40;2.63;;;13.60;99.90;;;;;;5105673;28;20040;-72
2023/10/09 02:53:59;;;;;;;6.15;3.17;;;13.60;99.90;;;;;;5108357;28;20045;-72
2023/10/09 02:59:23;;;;;;;7.40;2.97;;;13.60;99.90;;;;;;5088277;28;20043;-72
2023/10/09 03:01:52;;;;;;;10.18;3.03;;;13.60;99.90;;;;;;5089705;28;20039;-71
2023/10/09 03:04:19;;;;;;;9.05;3.67;;;13.60;99.90;;;;;;5106816;28;20337;-72
2023/10/09 03:06:51;;;;;;;7.55;3.58;;;13.60;99.90;;;;;;5098961;28;20046;-72
2023/10/09 03:09:17;;;;;;;14.02;4.05;;;13.60;99.90;;;;;;5086725;28;20032;-72
2023/10/09 03:11:53;;;;;;;9.55;3.42;;;13.60;99.90;;;;;;5080150;28;20525;-72
2023/10/09 03:14:26;;;;;;;7.22;3.80;;;13.60;99.90;;;;;;5086858;28;20121;-72
2023/10/09 03:16:52;;;;;;;9.27;3.47;;;13.60;99.90;;;;;;5084028;28;20048;-71
2023/10/09 03:19:18;;;;;;;6.53;3.58;;;13.70;99.90;;;;;;5070389;28;20129;-71
2023/10/09 03:21:44;;;;;;;7.57;3.60;;;13.60;99.90;;;;;;5073570;28;20051;-72
2023/10/09 03:24:11;;;;;;;10.55;3.50;;;13.70;99.90;;;;;;5091550;28;20483;-72
2023/10/09 03:26:37;;;;;;;9.15;3.58;;;13.70;99.90;;;;;;5087618;28;20047;-72
2023/10/09 03:29:10;;;;;;;7.20;3.95;;;13.70;99.90;;;;;;5086667;28;20148;-72
2023/10/09 03:31:36;;;;;;;10.52;3.85;;;13.70;99.90;;;;;;5084053;28;20115;-72
2023/10/09 03:34:03;;;;;;;8.43;4.10;;;13.70;99.90;;;;;;5089708;28;20046;-69
2023/10/09 03:36:30;;;;;;;10.07;4.78;;;13.70;99.90;;;;;;5071595;28;20120;-71
2023/10/09 03:38:59;;;;;;;9.48;4.47;;;13.80;99.90;;;;;;5088672;28;20040;-69
2023/10/09 03:41:26;;;;;;;8.10;4.05;;;13.80;99.90;;;;;;5092942;28;20149;-69
2023/10/09 03:43:54;;;;;;;9.40;3.88;;;13.90;99.90;;;;;;5091877;28;20115;-71
2023/10/09 03:46:21;;;;;;;11.43;4.05;;;13.90;99.90;;;;;;5092564;28;20103;-70
2023/10/09 03:48:56;;;;;;;11.88;5.45;;;13.90;99.90;;;;;;5080080;28;20083;-71
2023/10/09 03:51:22;;;;;;;9.80;3.88;;;13.90;99.90;;;;;;5092296;28;20035;-70
2023/10/09 03:53:48;;;;;;;7.60;3.78;;;13.90;99.90;;;;;;5091062;28;20530;-71
2023/10/09 03:56:18;;;;;;;7.55;3.20;;;14.00;99.90;;;;;;5089199;28;20051;-70
2023/10/09 03:58:45;;;;;;;11.55;4.63;;;14.00;99.90;;;;;;5074986;28;20043;-70
2023/10/09 04:01:28;;;;;;;9.23;3.90;;;14.00;99.90;;;;;;5092049;28;20118;-70
2023/10/09 04:03:55;;;;;;;9.57;4.13;;;14.10;99.90;;;;;;5089931;28;20116;-71
2023/10/09 04:06:22;;;;;;;8.93;4.15;;;14.10;99.90;;;;;;5076134;28;20090;-71
2023/10/09 04:08:51;;;;;;;11.27;4.45;;;14.20;99.90;;;;;;5089012;28;20040;-70
2023/10/09 04:11:17;;;;;;;10.18;5.22;;;14.20;99.90;;;;;;5075658;28;20334;-71
2023/10/09 04:13:46;;;;;;;7.70;4.28;;;14.20;99.90;;;;;;5094635;28;20460;-70
2023/10/09 04:18:56;;;;;;;;;;;14.30;99.90;;;;;;5089595;28;20055;-70
2023/10/09 04:21:35;;;;;;;11.68;4.63;;;14.30;99.90;;;;;;5088785;28;20276;-71
2023/10/09 04:24:22;;;;;;;7.95;3.78;;;14.30;99.90;;;;;;5094066;28;20050;-71
2023/10/09 04:26:53;;;;;;;8.77;4.30;;;14.40;99.90;;;;;;5103786;28;20101;-71
2023/10/09 04:29:37;;;;;;;12.65;4.45;;;14.40;99.90;;;;;;5088569;28;20462;-71
2023/10/09 04:32:07;;;;;;;7.55;2.92;;;14.40;99.90;;;;;;5089326;28;20066;-71
2023/10/09 04:34:41;;;;;;;10.80;4.20;;;14.40;99.90;;;;;;5088283;28;20114;-71
2023/10/09 04:39:47;;;;;;;8.90;3.67;;;14.50;99.90;;;;;;5087424;28;20058;-70
2023/10/09 04:47:36;;;;;;;8.63;3.85;;;14.50;99.90;;;;;;5086878;28;20047;-71
2023/10/09 05:02:54;;;;;;;6.97;3.65;;;14.70;99.90;;;;;;5088749;28;20503;-71
2023/10/09 05:16:13;;;;;;;7.57;3.75;;;14.90;99.90;;;;;;5089251;28;20050;-71
2023/10/09 05:19:28;;;;;;;8.30;3.07;;;14.90;99.90;;;;;;5074489;28;20048;-71
2023/10/09 05:21:58;;;;;;;8.93;2.58;;;14.90;99.90;;;;;;5080172;28;20047;-71
2023/10/09 05:24:26;;;;;;;9.98;3.33;;;15.00;99.90;;;;;;5079228;28;20039;-70
2023/10/09 05:26:52;;;;;;;6.13;2.72;;;15.00;99.90;;;;;;5085815;28;20387;-70
2023/10/09 05:29:48;;;;;;;4.93;2.40;;;15.10;99.90;;;;;;5073312;28;20031;-71
2023/10/09 05:35:39;;;;;;;6.43;2.83;;;15.20;99.90;;;;;;5090863;28;20123;-71
2023/10/09 05:37:42;;;;;;;4.13;2.13;;;15.20;99.90;;;;;;5086961;28;20227;-71
2023/10/09 05:41:04;;;;;;;7.32;2.53;;;15.30;99.90;;;;;;5106884;28;20086;-71
2023/10/09 05:42:59;;;;;;;4.18;2.50;;;15.30;99.90;;;;;;5091377;28;20043;-71
2023/10/09 06:04:53;;;;;;;3.42;2.03;;;15.50;99.90;;;;;;5104751;28;19920;-69
2023/10/09 06:07:24;;;;;;;2.97;1.95;;;15.50;99.90;;;;;;5101934;28;20194;-70
2023/10/09 06:09:52;;;;;;;6.20;2.17;;;15.40;99.90;;;;;;5100304;28;20032;-69
2023/10/09 06:12:49;;;;;;;6.00;1.95;;;15.50;99.90;;;;;;5102976;28;20491;-70
2023/10/09 06:23:57;;;;;;;3.38;1.95;;;15.50;99.90;;;;;;5088191;28;20054;-68
2023/10/09 06:26:26;;;;;;;4.78;1.42;;;15.60;99.90;;;;;;5089989;28;20043;-69
2023/10/09 06:34:32;;;;;;;;;;;15.70;99.90;;;;;;5089636;28;20104;-69
2023/10/09 06:37:17;;;;;;;3.85;1.48;;;15.70;99.90;;;;;;5082797;28;20445;-70
2023/10/09 06:44:59;;;;;;;4.18;1.55;;;15.70;99.90;;;;;;5087040;28;20051;-69
2023/10/09 06:47:24;;;;;;;2.90;1.23;;;15.80;99.90;;;;;;5080037;28;20408;-69
2023/10/09 06:55:19;;;;;;;2.15;1.10;;;15.80;99.90;;;;;;5060592;28;20399;-69
2023/10/09 06:57:49;;;;;;;3.22;1.88;;;15.80;99.90;;;;;;5058638;28;20044;-69
2023/10/09 07:00:54;;;;;;;4.78;1.50;;;15.80;99.90;;;;;;5065675;28;20044;-69
2023/10/09 07:03:11;;;;;;;8.27;2.40;;;15.90;99.90;;;;;;5065705;28;20044;-69
2023/10/09 07:06:04;;;;;;;4.53;1.50;;;15.90;99.90;;;;;;5064985;28;20044;-70
2023/10/09 07:08:31;;;;;;;5.03;1.20;;;15.90;99.90;;;;;;5065292;28;20131;-69
2023/10/09 07:13:53;;;;;;;3.83;1.23;;;15.90;99.90;;;;;;5067621;28;20047;-70
2023/10/09 07:16:23;;;;;;;5.63;1.67;;;16.00;99.90;;;;;;5067591;28;20075;-69
2023/10/09 07:18:49;;;;;;;2.67;1.05;;;16.00;99.90;;;;;;5074094;28;20626;-68
2023/10/09 07:21:18;;;;;;;4.40;1.48;;;16.10;99.90;;;;;;5072364;28;20039;-70
2023/10/09 07:23:48;;;;;;;2.22;1.00;;;16.10;99.90;;;;;;5072070;28;20201;-70
2023/10/09 07:26:23;;;;;;;3.08;1.15;;;16.10;99.90;;;;;;5071038;28;20131;-70
2023/10/09 07:28:49;;;;;;;1.60;0.77;;;16.10;99.90;;;;;;5065262;28;20044;-69
2023/10/09 07:31:27;;;;;;;3.03;1.15;;;16.10;99.90;;;;;;5070531;28;20039;-70
2023/10/09 07:33:59;;;;;;;7.60;1.33;;;16.10;99.90;;;;;;5053368;28;20040;-70
2023/10/09 07:36:34;;;;;;;2.92;1.23;;;16.10;99.90;;;;;;5071732;28;20757;-70
2023/10/09 07:39:13;;;;;;;3.53;1.00;;;16.10;99.90;;;;;;5054780;28;20086;-68
2023/10/09 07:41:44;;;;;;;1.85;0.82;;;16.10;99.90;;;;;;5071878;28;20504;-69
2023/10/09 07:44:52;;;;;;;1.95;0.80;;;16.20;99.90;;;;;;5074609;28;20430;-69
2023/10/09 07:47:18;;;;;;;2.55;0.98;;;16.20;99.90;;;;;;5066346;28;20036;-70
2023/10/09 07:49:48;;;;;;;;;;;16.20;99.90;;;;;;5108703;28;20134;-69
2023/10/09 07:52:15;;;;;;;3.97;1.15;;;16.20;99.90;;;;;;5104376;28;19946;-69
2023/10/09 07:54:49;;;;;;;2.17;0.90;;;16.20;99.90;;;;;;5109338;28;20106;-69
2023/10/09 07:57:17;;;;;;;3.53;1.33;;;16.30;99.90;;;;;;5106492;27;20445;-70
2023/10/09 08:00:36;;;;;;;10.40;1.85;;;16.30;99.90;;;;;;5110015;27;20566;-70
2023/10/09 08:02:32;;;;;;;2.20;1.00;;;16.40;99.90;;;;;;5100418;28;20040;-70
2023/10/09 08:05:33;;;;;;;2.50;1.27;;;16.40;99.90;;;;;;5104315;28;20101;-70
2023/10/09 08:07:57;;;;;;;3.47;0.90;;;16.40;99.90;;;;;;5106039;27;20689;-68
2023/10/09 08:17:29;;;;;;;1.73;1.20;;;16.60;99.90;;;;;;5057335;28;20047;-69
2023/10/09 08:19:55;;;;;;;2.88;1.27;;;16.60;99.90;;;;;;5111142;27;20367;-69
2023/10/09 08:24:58;;;;;;;1.98;0.88;;;16.60;99.90;;;;;;5108488;27;20078;-70
2023/10/09 08:32:40;;;;;;;4.72;1.35;;;16.70;99.90;;;;;;5110687;27;20047;-69
2023/10/09 08:35:29;;;;;;;4.78;1.35;;;16.70;99.90;;;;;;5108473;27;20579;-69
2023/10/09 08:37:58;;;;;;;2.85;1.02;;;16.70;99.90;;;;;;5109658;27;20352;-69
2023/10/09 08:40:58;;;;;;;2.20;1.05;;;16.70;99.90;;;;;;5107774;27;20780;-69
2023/10/09 08:43:23;;;;;;;2.38;0.90;;;16.70;99.90;;;;;;5127428;27;20088;-69
2023/10/09 08:46:02;;;;;;;4.28;1.10;;;16.70;99.90;;;;;;5113856;27;20031;-68
2023/10/09 08:48:29;;;;;;;4.03;1.02;;;16.70;99.90;;;;;;5132512;27;20100;-69
2023/10/09 08:50:56;;;;;;;3.08;1.20;;;16.60;99.90;;;;;;5109752;27;20047;-69
2023/10/09 08:53:27;;;;;;;5.03;1.10;;;16.70;99.90;;;;;;5130817;27;20043;-69
2023/10/09 08:55:53;;;;;;;1.33;0.90;;;16.70;99.90;;;;;;5088209;27;20039;-69
2023/10/09 08:58:20;;;;;;;4.20;1.25;;;16.60;99.90;;;;;;5096170;27;20141;-69
2023/10/09 09:00:47;;;;;;;4.18;1.00;;;16.60;99.90;;;;;;5128673;27;20081;-69
2023/10/09 09:03:16;;;;;;;1.30;0.70;;;16.60;99.90;;;;;;5111472;27;20039;-69
2023/10/09 09:05:56;;;;;;;6.45;1.55;;;16.60;99.90;;;;;;5095988;27;20361;-69
2023/10/09 09:08:25;;;;;;;3.95;0.85;;;16.70;99.90;;;;;;5109244;27;20039;-69
2023/10/09 09:11:12;;;;;;;4.00;1.70;;;16.70;99.90;;;;;;5108380;27;20042;-69
2023/10/09 09:13:48;;;;;;;3.78;1.15;;;16.70;99.90;;;;;;5112381;27;20107;-69
2023/10/09 09:16:51;;;;;;;3.00;1.10;;;16.70;99.90;;;;;;5057287;28;20124;-69
2023/10/09 09:19:17;;;;;;;5.80;1.75;;;16.70;99.90;;;;;;5066859;28;20440;-69
2023/10/09 09:21:49;;;;;;;7.38;1.50;;;16.70;99.90;;;;;;5089287;27;20137;-68
2023/10/09 09:24:30;;;;;;;2.28;0.98;;;16.70;99.90;;;;;;5127842;27;20107;-67
2023/10/09 09:27:12;;;;;;;5.25;1.30;;;16.70;99.90;;;;;;5125390;27;20158;-66
2023/10/09 09:29:38;;;;;;;3.60;1.55;;;16.70;99.90;;;;;;5129208;27;20058;-66
2023/10/09 09:32:20;;;;;;;2.35;1.17;;;16.70;99.90;;;;;;5128775;27;20043;-66
2023/10/09 09:34:49;;;;;;;5.50;1.60;;;16.70;99.90;;;;;;5128880;27;20035;-66
2023/10/09 09:37:30;;;;;;;3.90;0.93;;;16.60;99.90;;;;;;5130398;27;20138;-65
2023/10/09 09:40:00;;;;;;;5.47;1.70;;;16.60;99.90;;;;;;5125194;27;20085;-66
2023/10/09 09:42:32;;;;;;;4.57;0.82;;;16.70;99.90;;;;;;5124116;27;20039;-65
2023/10/09 09:45:00;;;;;;;2.97;1.27;;;16.70;99.90;;;;;;5125716;27;20047;-65
2023/10/09 09:47:27;;;;;;;5.00;1.30;;;16.70;99.90;;;;;;5128571;27;20048;-66
2023/10/09 09:49:59;;;;;;;5.45;1.20;;;16.80;99.90;;;;;;5125502;27;20122;-67
2023/10/09 09:52:40;;;;;;;3.20;0.95;;;16.80;99.90;;;;;;5107473;27;20491;-66
2023/10/09 09:55:22;;;;;;;4.15;1.13;;;16.80;99.90;;;;;;5129022;27;20046;-66
2023/10/09 09:57:51;;;;;;;3.53;1.00;;;16.90;99.90;;;;;;5123845;27;20035;-66
2023/10/09 10:00:29;;;;;;;5.38;1.15;;;16.90;99.90;;;;;;5109403;27;20126;-66
2023/10/09 10:03:05;;;;;;;4.57;1.40;;;16.90;99.90;;;;;;5124325;27;20169;-66
2023/10/09 10:05:33;;;;;;;2.88;1.13;;;16.90;99.90;;;;;;5122741;27;20542;-66
2023/10/09 10:08:00;;;;;;;4.15;1.08;;;16.90;99.90;;;;;;5123856;27;20043;-66
2023/10/09 10:11:04;;;;;;;2.17;1.10;;;17.00;99.90;;;;;;5122898;27;20047;-67
2023/10/09 10:13:42;;;;;;;4.30;0.90;;;17.10;99.90;;;;;;5074136;27;20040;-66
2023/10/09 10:16:20;;;;;;;2.85;1.35;;;17.30;99.90;;;;;;5042462;28;20041;-66
2023/10/09 10:19:00;;;;;;;2.25;1.10;;;17.40;99.90;;;;;;5042727;28;20053;-66
2023/10/09 10:21:39;;;;;;;2.40;1.27;;;17.40;99.90;;;;;;5024857;28;20046;-67
2023/10/09 10:24:28;;;;;;;3.00;1.00;;;17.50;99.90;;;;;;5022535;28;20116;-67
2023/10/09 10:27:24;;;;;;;3.97;1.40;;;17.40;99.90;;;;;;5036893;28;20318;-67
2023/10/09 10:30:23;;;;;;;5.68;1.20;;;17.50;99.90;;;;;;5039008;28;20041;-67
2023/10/09 10:32:52;;;;;;;2.83;1.02;;;17.50;99.90;;;;;;5036216;28;20132;-67
2023/10/09 10:36:07;;;;;;;6.60;1.50;;;17.60;99.90;;;;;;5028420;28;20052;-67
2023/10/09 10:38:34;;;;;;;2.33;1.27;;;17.50;99.90;;;;;;5032219;28;20051;-68
2023/10/09 10:41:16;;;;;;;8.07;1.30;;;17.50;99.90;;;;;;5035923;28;20534;-67
2023/10/09 10:46:30;;;;;;;2.08;0.70;;;17.50;99.90;;;;;;5035683;28;20057;-67
2023/10/09 10:49:14;;;;;;;4.18;0.98;;;17.40;99.90;;;;;;5037016;28;20579;-67
2023/10/09 10:51:47;;;;;;;3.13;1.15;;;17.50;99.90;;;;;;5039695;28;20131;-67
2023/10/09 10:57:00;;;;;;;4.95;1.27;;;17.40;99.90;;;;;;5023436;28;20056;-67
2023/10/09 10:59:36;;;;;;;2.85;0.80;;;17.50;99.90;;;;;;5021980;28;20037;-67
2023/10/09 11:04:42;;;;;;;3.63;0.90;;;17.50;99.90;;;;;;5041466;28;20363;-67
2023/10/09 11:07:24;;;;;;;3.63;1.13;;;17.60;99.90;;;;;;5041559;28;20068;-67
2023/10/09 11:12:39;;;;;;;3.08;1.45;;;17.50;99.90;;;;;;5039850;28;20045;-67
2023/10/09 11:18:07;;;;;;;2.15;1.00;;;17.50;99.90;;;;;;5021544;28;20057;-67
2023/10/09 11:20:38;;;;;;;2.33;1.10;;;17.50;99.90;;;;;;5034737;28;20045;-67
2023/10/09 11:23:14;;;;;;;2.35;1.17;;;17.60;99.90;;;;;;5020761;28;20049;-68
2023/10/09 11:25:51;;;;;;;2.47;1.00;;;17.70;99.90;;;;;;5040749;28;20556;-68
2023/10/09 11:31:11;;;;;;;2.20;0.80;;;17.90;99.90;;;;;;5038970;28;20116;-68
2023/10/09 11:33:53;;;;;;;1.88;1.02;;;18.00;99.90;;;;;;5042465;28;21252;-68
2023/10/09 11:36:31;;;;;;;4.13;1.42;;;18.10;99.90;;;;;;5019116;28;20068;-68
2023/10/09 11:39:22;;;;;;;3.20;1.85;;;18.10;99.90;;;;;;5041875;28;20048;-68
2023/10/09 11:41:55;;;;;;;2.78;1.27;;;18.00;99.90;;;;;;5018396;28;20045;-68
2023/10/09 11:44:55;;;;;;;3.78;0.93;;;18.10;99.90;;;;;;5016249;28;20049;-68
2023/10/09 11:49:58;;;;;;;5.78;0.68;;;18.10;99.90;;;;;;5036315;28;20749;-69
2023/10/09 11:52:36;;;;;;;4.13;1.10;;;18.20;99.90;;;;;;5038395;28;20055;-68
2023/10/09 11:55:02;;;;;;;1.20;0.68;;;18.20;99.90;;;;;;5041413;28;20045;-68
2023/10/09 11:57:33;;;;;;;4.53;1.67;;;18.30;99.90;;;;;;5009762;28;20597;-68
2023/10/09 12:00:00;;;;;;;1.17;0.85;;;18.30;99.90;;;;;;5014466;28;20397;-69
2023/10/09 12:02:26;;;;;;;2.80;0.70;;;18.20;99.90;;;;;;5020886;28;20099;-69
2023/10/09 12:04:55;;;;;;;3.17;1.20;;;18.10;99.90;;;;;;5019778;28;20036;-68
2023/10/09 12:07:22;;;;;;;1.95;0.35;;;18.20;99.90;;;;;;5025269;28;20041;-68
2023/10/09 12:09:56;;;;;;;1.00;0.60;;;18.10;99.90;;;;;;5040590;28;20048;-69
2023/10/09 12:12:26;;;;;;;3.58;0.80;;;18.10;99.90;;;;;;5022370;28;20041;-67
2023/10/09 12:14:53;;;;;;;1.75;0.88;;;18.10;99.90;;;;;;5039569;28;20043;-68
2023/10/09 12:17:18;;;;;;;1.13;0.55;;;18.00;99.90;;;;;;5022146;28;20575;-68
2023/10/09 12:19:44;;;;;;;2.22;0.77;;;18.00;99.90;;;;;;5039985;28;20088;-69
2023/10/09 12:22:10;;;;;;;1.55;0.45;;;18.00;99.90;;;;;;5040172;28;20473;-69
2023/10/09 12:24:43;;;;;;;2.08;0.55;;;17.90;99.90;;;;;;5045416;28;20041;-69
2023/10/09 12:27:11;;;;;;;1.98;0.70;;;17.80;99.90;;;;;;5022482;28;20052;-69
2023/10/09 12:29:37;;;;;;;1.52;0.60;;;17.80;99.90;;;;;;5022576;28;20033;-69
2023/10/09 12:32:03;;;;;;;3.53;0.88;;;17.80;99.90;;;;;;5037975;28;20048;-69
2023/10/09 12:34:32;;;;;;;1.00;0.60;;;17.80;99.90;;;;;;5043561;28;20037;-69
2023/10/09 12:37:01;;;;;;;1.92;0.82;;;17.90;99.90;;;;;;5025199;28;20127;-68
2023/10/09 12:39:33;;;;;;;1.45;0.65;;;18.10;99.90;;;;;;5025025;28;20044;-69
2023/10/09 12:42:06;;;;;;;1.33;0.40;;;18.20;99.90;;;;;;5035488;28;20533;-69
2023/10/09 12:44:38;;;;;;;4.95;0.52;;;18.30;99.90;;;;;;5019972;28;20045;-69
2023/10/09 12:47:11;;;;;;;2.28;0.52;;;18.60;99.90;;;;;;5021458;28;20052;-68
2023/10/09 12:49:40;;;;;;;4.40;0.70;;;18.70;99.90;;;;;;5040128;28;20188;-69
2023/10/09 12:52:15;;;;;;;3.03;0.73;;;18.70;99.90;;;;;;5023176;28;20076;-69
2023/10/09 12:54:42;;;;;;;1.88;0.57;;;18.70;99.90;;;;;;5023542;28;20128;-69
2023/10/09 12:57:13;;;;;;;3.38;1.13;;;18.60;99.90;;;;;;5024559;28;20053;-69
2023/10/09 12:59:45;;;;;;;4.15;0.70;;;18.60;99.90;;;;;;5020796;28;20049;-69
2023/10/09 13:02:28;;;;;;;5.75;0.85;;;18.60;99.90;;;;;;5023798;28;20565;-69
2023/10/09 13:04:57;;;;;;;2.65;0.57;;;18.70;99.90;;;;;;5041705;28;20080;-69
2023/10/09 13:07:23;;;;;;;1.38;0.40;;;18.70;99.90;;;;;;5023052;28;20382;-69
2023/10/09 13:12:34;;;;;;;;;;;18.90;99.90;;;;;;5022014;28;20041;-69
2023/10/09 13:14:59;;;;;;;5.03;0.52;;;19.00;99.90;;;;;;5038580;28;19979;-69
2023/10/09 13:17:26;;;;;;;0.63;0.30;;;19.00;99.90;;;;;;5024555;28;20045;-69
2023/10/09 13:19:53;;;;;;;0.43;0.30;;;19.00;99.90;;;;;;5024510;28;20048;-69
2023/10/09 13:22:18;;;;;;;2.03;0.85;;;19.00;99.90;;;;;;5021737;28;20086;-69
2023/10/09 13:24:48;;;;;;;2.03;0.30;;;18.80;99.90;;;;;;5039177;28;20049;-69
2023/10/09 13:27:21;;;;;;;4.07;0.30;;;18.70;99.90;;;;;;5024128;28;20037;-69
2023/10/09 13:29:47;;;;;;;2.17;0.40;;;18.60;99.90;;;;;;5044333;28;20049;-69
2023/10/09 13:32:14;;;;;;;1.83;0.40;;;18.50;99.90;;;;;;5027479;28;20041;-68
2023/10/09 13:34:48;;;;;;;1.30;0.60;;;18.50;99.90;;;;;;5040698;28;20088;-69
2023/10/09 13:37:19;;;;;;;;;;;18.50;99.90;;;;;;5029579;28;20047;-67
2023/10/09 13:39:55;;;;;;;0.65;0.20;;;18.50;99.90;;;;;;5013664;28;19921;-68
2023/10/09 13:42:24;;;;;;;1.33;0.43;;;18.60;99.90;;;;;;5029830;28;20048;-68
2023/10/09 13:44:53;;;;;;;1.08;0.30;;;18.70;99.90;;;;;;5040577;28;20041;-67
2023/10/09 13:47:20;;;;;;;1.80;0.52;;;18.70;99.90;;;;;;5025759;28;20080;-68
2023/10/09 13:49:53;;;;;;;4.18;0.45;;;18.70;99.90;;;;;;5024120;28;20049;-69
2023/10/09 13:52:19;;;;;;;1.83;0.30;;;18.60;99.90;;;;;;5020226;28;20064;-69
2023/10/09 13:54:50;;;;;;;3.22;0.30;;;18.50;99.90;;;;;;5044502;28;20049;-68
2023/10/09 13:57:16;;;;;;;0.63;0.30;;;18.50;99.90;;;;;;5024372;28;20081;-68
2023/10/09 13:59:51;;;;;;;1.60;0.47;;;18.40;99.90;;;;;;5028878;28;20437;-68
2023/10/09 14:02:18;;;;;;;2.88;0.40;;;18.40;99.90;;;;;;5037306;28;20037;-68
2023/10/09 14:04:47;;;;;;;6.05;0.40;;;18.30;99.90;;;;;;5024985;28;20044;-69
2023/10/09 14:07:16;;;;;;;4.70;0.50;;;18.20;99.90;;;;;;5027284;28;20045;-68
2023/10/09 14:12:10;;;;;;;1.77;0.47;;;18.20;99.90;;;;;;5044789;28;20119;-68
2023/10/09 14:14:53;;;;;;;1.35;0.25;;;18.10;99.90;;;;;;5023484;28;20506;-70
2023/10/09 14:17:27;;;;;;;1.75;0.20;;;18.20;99.90;;;;;;5025242;28;20115;-70
2023/10/09 14:19:54;;;;;;;0.70;0.22;;;18.20;99.90;;;;;;5020057;28;20049;-70
2023/10/09 14:22:24;;;;;;;0.50;0.25;;;18.30;99.90;;;;;;5023096;28;20120;-70
2023/10/09 14:24:56;;;;;;;3.70;0.50;;;18.40;99.90;;;;;;5022558;28;20136;-70
2023/10/09 14:27:29;;;;;;;2.60;0.75;;;18.40;99.90;;;;;;5017386;28;20120;-71
2023/10/09 14:29:56;;;;;;;0.30;0.30;;;18.50;99.90;;;;;;5026969;28;20040;-70
2023/10/09 14:32:28;;;;;;;2.03;0.20;;;18.50;99.90;;;;;;5018684;28;20033;-72
2023/10/09 14:35:00;;;;;;;2.88;0.65;;;18.40;99.90;;;;;;5022720;28;20046;-70
2023/10/09 14:37:27;;;;;;;2.08;0.30;;;18.40;99.90;;;;;;5021428;28;20037;-71
2023/10/09 14:39:55;;;;;;;1.20;0.20;;;18.30;99.90;;;;;;5023202;28;20139;-71
2023/10/09 14:42:23;;;;;;;1.90;0.40;;;18.30;99.90;;;;;;5023438;28;20187;-71
2023/10/09 14:44:50;;;;;;;0.80;0.40;;;18.20;99.90;;;;;;5024066;28;20084;-71
2023/10/09 14:47:18;;;;;;;0.93;0.32;;;18.30;99.90;;;;;;5020719;28;20500;-70
2023/10/09 14:49:47;;;;;;;4.57;0.75;;;18.20;99.90;;;;;;5021288;28;20051;-70
2023/10/09 14:52:16;;;;;;;0.50;0.35;;;18.10;99.90;;;;;;5020908;28;20118;-70
2023/10/09 14:54:44;;;;;;;2.67;0.40;;;18.10;99.90;;;;;;5023682;28;20090;-70
2023/10/09 14:57:14;;;;;;;2.33;0.50;;;18.10;99.90;;;;;;5022200;28;20051;-71
2023/10/09 14:59:40;;;;;;;1.08;0.25;;;18.00;99.90;;;;;;5020190;28;20048;-71
2023/10/09 15:02:07;;;;;;;1.27;0.57;;;18.00;99.90;;;;;;5022405;28;20502;-71
2023/10/09 15:04:36;;;;;;;12.27;0.73;;;17.90;99.90;;;;;;5025580;28;20409;-71
2023/10/09 15:07:06;;;;;;;0.65;0.25;;;17.90;99.90;;;;;;5024207;28;20033;-71
2023/10/09 15:09:34;;;;;;;1.80;0.40;;;17.80;99.90;;;;;;5027543;28;20060;-68
2023/10/09 15:12:00;;;;;;;2.08;0.30;;;17.70;99.90;;;;;;5023484;28;20095;-68
2023/10/09 15:14:26;;;;;;;0.40;0.13;;;17.70;99.90;;;;;;5024120;28;20242;-69
2023/10/09 15:16:51;;;;;;;1.63;0.47;;;17.70;99.90;;;;;;5021981;28;20037;-70
2023/10/09 15:19:17;;;;;;;2.60;0.45;;;17.70;99.90;;;;;;5020249;28;20041;-71
2023/10/09 15:21:43;;;;;;;5.63;0.50;;;17.60;99.90;;;;;;5025993;28;20040;-69
2023/10/09 15:24:15;;;;;;;1.90;0.25;;;17.60;99.90;;;;;;5020651;28;20037;-70
2023/10/09 15:26:51;;;;;;;0.52;0.35;;;17.60;99.90;;;;;;5017322;28;20375;-68
2023/10/09 15:29:19;;;;;;;1.65;0.47;;;17.50;99.90;;;;;;5024253;28;20045;-69
2023/10/09 15:31:46;;;;;;;1.35;0.28;;;17.60;99.90;;;;;;5023677;28;20490;-68
2023/10/09 15:34:13;;;;;;;0.93;0.20;;;17.50;99.90;;;;;;5022916;28;20037;-68
2023/10/09 15:36:39;;;;;;;1.35;0.40;;;17.50;99.90;;;;;;5027700;28;20099;-68
2023/10/09 15:39:11;;;;;;;2.15;0.57;;;17.50;99.90;;;;;;5027563;28;20875;-69
2023/10/09 15:41:39;;;;;;;0.80;0.25;;;17.50;99.90;;;;;;5026502;28;20049;-68
2023/10/09 15:44:06;;;;;;;0.38;0.10;;;17.40;99.90;;;;;;5025596;28;20123;-68